This is the latest recevied weather packets stored in our database for station/object DL4ABR-6. If no packets are shown the sender has not sent any weather packets the latest 10 day(s).
| Time | Temp. | Humidity | Pressure | Rain* | Wind** | Luminosity | Snow |
|---|---|---|---|---|---|---|---|
| 1777487864 | 11.67° C | 48% | 1025.6 hPa | 0 mm | - | - | - |
| 1777483084 | 15° C | 38% | 1025.1 hPa | 0 mm | - | - | - |
| 1777476420 | 16.67° C | 34% | 1024.9 hPa | 0 mm | - | - | - |
| 1777469110 | 16.11° C | 33% | 1025.2 hPa | 0 mm | - | - | - |
| 1777465914 | 15.56° C | 35% | 1025.1 hPa | 0 mm | - | - | - |
| 1777465175 | 16.67° C | 32% | 1025.5 hPa | 0 mm | - | - | - |
| 1777461115 | 15.56° C | 33% | 1025.7 hPa | 0 mm | - | - | - |
| 1777460290 | 15.56° C | 34% | 1025.6 hPa | 0 mm | - | - | - |
| 1777458652 | 15.56° C | 35% | 1025.9 hPa | 0 mm | - | - | - |
| 1777457860 | 15° C | 35% | 1025.7 hPa | 0 mm | - | - | - |
| 1777457100 | 15° C | 35% | 1025.9 hPa | 0 mm | - | - | - |
| 1777455485 | 14.44° C | 38% | 1025.6 hPa | 0 mm | - | - | - |
| 1777454700 | 13.33° C | 37% | 1025.7 hPa | 0 mm | - | - | - |
| 1777453974 | 14.44° C | 39% | 1025.9 hPa | 0 mm | - | - | - |
| 1777453255 | 13.33° C | 39% | 1026 hPa | 0 mm | - | - | - |
| 1777451650 | 13.89° C | 40% | 1025.8 hPa | 0 mm | - | - | - |
| 1777450875 | 12.78° C | 41% | 1025.6 hPa | 0 mm | - | - | - |
| 1777450145 | 13.33° C | 41% | 1025.5 hPa | 0 mm | - | - | - |
| 1777449340 | 11.67° C | 47% | 1025.7 hPa | 0 mm | - | - | - |
| 1777447875 | 11.11° C | 47% | 1025.6 hPa | 0 mm | - | - | - |
| 1777447025 | 10.56° C | 47% | 1025.2 hPa | 0 mm | - | - | - |
| 1777446144 | 10° C | 50% | 1025.4 hPa | 0 mm | - | - | - |
| 1777445255 | 8.33° C | 58% | 1025.3 hPa | 0 mm | - | - | - |
| 1777444420 | 7.22° C | 64% | 1025.3 hPa | 0 mm | - | - | - |
| 1777443565 | 6.11° C | 66% | 1025.2 hPa | 0 mm | - | - | - |
* Rain since midnight (hover to see other rain measurements)
** Current wind speed in m/s (hover to see current wind gust speed)